createdAt,value
2019-05-20T00:02:24.384Z,13.80
2019-05-20T00:04:42.448Z,13.90
2019-05-20T00:07:08.516Z,14.00
2019-05-20T00:09:34.658Z,14.10
2019-05-20T00:12:00.749Z,14.20
2019-05-20T00:14:26.842Z,14.10
2019-05-20T00:16:52.924Z,14.10
2019-05-20T00:19:19.049Z,14.00
2019-05-20T00:21:45.143Z,13.90
2019-05-20T00:24:11.231Z,14.00
2019-05-20T00:26:37.370Z,14.10
2019-05-20T00:29:03.493Z,14.00
2019-05-20T00:31:29.653Z,14.00
2019-05-20T00:33:55.725Z,14.10
2019-05-20T00:36:21.967Z,14.10
2019-05-20T00:39:06.883Z,14.00
2019-05-20T00:41:33.019Z,14.10
2019-05-20T00:43:59.240Z,13.80
2019-05-20T00:46:25.474Z,13.80
2019-05-20T00:48:51.654Z,13.90
2019-05-20T00:51:17.849Z,13.80
2019-05-20T00:53:44.226Z,13.80
2019-05-20T00:56:10.394Z,13.80
2019-05-20T00:58:36.521Z,13.90
2019-05-20T01:01:02.715Z,13.80
2019-05-20T01:03:28.799Z,13.80
2019-05-20T01:05:54.926Z,13.90
2019-05-20T01:08:21.143Z,13.80
2019-05-20T01:10:47.227Z,13.80
2019-05-20T01:13:13.419Z,14.00
2019-05-20T01:15:39.587Z,13.90
2019-05-20T01:18:05.907Z,14.00
2019-05-20T01:20:32.035Z,14.00
2019-05-20T01:22:58.261Z,14.00
2019-05-20T01:25:24.467Z,14.00
2019-05-20T01:27:50.818Z,13.70
2019-05-20T01:30:17.435Z,13.80
2019-05-20T01:32:43.969Z,13.80
2019-05-20T01:35:10.549Z,13.90
2019-05-20T01:37:36.627Z,13.90
2019-05-20T01:40:04.016Z,13.90
2019-05-20T01:42:30.101Z,14.00
2019-05-20T01:44:56.255Z,14.00
2019-05-20T01:47:22.421Z,14.10
2019-05-20T01:49:48.550Z,14.00
2019-05-20T01:52:14.623Z,14.10
2019-05-20T01:54:40.766Z,14.10
2019-05-20T01:57:06.877Z,14.10
2019-05-20T01:59:32.965Z,14.20
2019-05-20T02:01:59.117Z,14.10
2019-05-20T02:04:25.353Z,14.10
2019-05-20T02:06:51.431Z,14.00
2019-05-20T02:09:17.678Z,14.10
2019-05-20T02:11:43.841Z,14.00
2019-05-20T02:14:11.902Z,14.00
2019-05-20T02:16:38.107Z,14.00
2019-05-20T02:19:04.194Z,14.00
2019-05-20T02:21:30.306Z,14.00
2019-05-20T02:23:56.387Z,14.00
2019-05-20T02:26:22.609Z,14.00
2019-05-20T02:28:48.705Z,13.90
2019-05-20T02:31:14.809Z,14.00
2019-05-20T02:33:51.696Z,13.90
2019-05-20T02:36:09.035Z,13.80
2019-05-20T02:38:35.154Z,13.70
2019-05-20T02:41:01.290Z,13.60
2019-05-20T02:43:27.489Z,13.70
2019-05-20T02:45:53.716Z,13.80
2019-05-20T02:48:19.927Z,13.90
2019-05-20T02:50:46.022Z,13.90
2019-05-20T02:53:12.177Z,13.80
2019-05-20T02:55:38.327Z,13.80
2019-05-20T02:58:04.579Z,13.80
2019-05-20T03:00:30.776Z,13.70
2019-05-20T03:02:57.013Z,13.60
2019-05-20T03:05:23.081Z,13.60
2019-05-20T03:07:49.326Z,13.60
2019-05-20T03:10:15.808Z,13.60
2019-05-20T03:12:41.913Z,13.50
2019-05-20T03:15:08.750Z,13.60
2019-05-20T03:17:34.886Z,13.50
2019-05-20T03:20:01.850Z,13.50
2019-05-20T03:22:28.139Z,13.40
2019-05-20T03:24:54.207Z,13.50
2019-05-20T03:27:20.362Z,13.50
2019-05-20T03:29:46.434Z,13.50
2019-05-20T03:32:12.556Z,13.60
2019-05-20T03:34:46.747Z,13.60
2019-05-20T03:37:06.753Z,13.50
2019-05-20T03:39:33.014Z,13.50
2019-05-20T03:41:59.082Z,13.50
2019-05-20T03:44:25.242Z,13.50
2019-05-20T03:46:51.405Z,13.50
2019-05-20T03:49:17.564Z,13.60
2019-05-20T03:51:43.785Z,13.50
2019-05-20T03:54:09.967Z,13.50
2019-05-20T03:56:36.045Z,13.50
2019-05-20T03:59:02.138Z,13.50
2019-05-20T04:01:28.268Z,13.40
2019-05-20T04:03:54.562Z,13.40
2019-05-20T04:06:21.334Z,13.50
2019-05-20T04:08:47.490Z,13.50
2019-05-20T04:11:13.763Z,13.60
2019-05-20T04:13:39.869Z,13.60
2019-05-20T04:16:06.031Z,13.70
2019-05-20T04:18:32.151Z,13.60
2019-05-20T04:20:58.271Z,13.70
2019-05-20T04:23:24.397Z,13.70
2019-05-20T04:25:50.551Z,13.70
2019-05-20T04:28:16.782Z,13.70
2019-05-20T04:30:42.868Z,13.70
2019-05-20T04:33:11.055Z,13.80
2019-05-20T04:35:37.309Z,13.90
2019-05-20T04:38:03.689Z,13.90
2019-05-20T04:40:29.900Z,13.70
2019-05-20T04:42:56.092Z,13.80
2019-05-20T04:45:22.295Z,13.80
2019-05-20T04:47:48.397Z,13.80
2019-05-20T04:50:14.778Z,13.80
2019-05-20T04:52:40.934Z,13.90
2019-05-20T04:55:07.446Z,14.00
2019-05-20T04:57:33.631Z,14.00
2019-05-20T04:59:59.755Z,13.90
2019-05-20T05:02:25.891Z,13.90
2019-05-20T05:04:51.975Z,14.00
2019-05-20T05:07:18.195Z,14.00
2019-05-20T05:09:44.479Z,14.00
2019-05-20T05:12:10.988Z,14.00
2019-05-20T05:14:37.168Z,14.00
2019-05-20T05:17:03.362Z,14.00
2019-05-20T05:19:29.572Z,14.00
2019-05-20T05:21:55.750Z,13.90
2019-05-20T05:24:22.104Z,13.90
2019-05-20T05:26:48.596Z,13.90
2019-05-20T05:29:14.855Z,14.00
2019-05-20T05:31:41.631Z,14.10
2019-05-20T05:34:08.480Z,14.10
2019-05-20T05:36:35.124Z,14.20
2019-05-20T05:39:01.315Z,14.20
2019-05-20T05:41:28.462Z,14.30
2019-05-20T05:43:55.470Z,14.30
2019-05-20T05:46:21.646Z,14.40
2019-05-20T05:48:47.714Z,14.50
2019-05-20T05:51:13.946Z,14.50
2019-05-20T05:53:40.056Z,14.60
2019-05-20T05:56:06.158Z,14.60
2019-05-20T05:58:32.390Z,14.70
2019-05-20T06:00:58.460Z,14.80
2019-05-20T06:03:24.709Z,14.90
2019-05-20T06:05:51.180Z,14.80
2019-05-20T06:08:17.410Z,14.70
2019-05-20T06:10:43.534Z,14.80
2019-05-20T06:13:09.729Z,15.00
2019-05-20T06:15:35.847Z,15.00
2019-05-20T06:18:02.152Z,14.90
2019-05-20T06:20:28.294Z,14.80
2019-05-20T06:22:54.507Z,14.90
2019-05-20T06:25:20.846Z,14.90
2019-05-20T06:27:47.032Z,14.90
2019-05-20T06:30:16.858Z,15.00
2019-05-20T06:32:43.280Z,15.10
2019-05-20T06:35:10.652Z,15.20
2019-05-20T06:37:39.248Z,15.30
2019-05-20T06:40:05.840Z,15.30
2019-05-20T06:42:32.156Z,15.40
2019-05-20T06:44:58.393Z,15.20
2019-05-20T06:47:24.613Z,15.30
2019-05-20T06:49:50.793Z,15.40
2019-05-20T06:52:16.921Z,15.60
2019-05-20T06:54:43.036Z,15.70
2019-05-20T06:57:09.218Z,15.70
2019-05-20T06:59:35.861Z,15.70
2019-05-20T07:02:04.083Z,15.70
2019-05-20T07:04:30.404Z,15.80
2019-05-20T07:06:56.536Z,15.80
2019-05-20T07:09:22.749Z,15.70
2019-05-20T07:11:52.858Z,15.70
2019-05-20T07:14:16.880Z,15.60
2019-05-20T07:16:43.009Z,15.70
2019-05-20T07:19:09.203Z,15.80
2019-05-20T07:21:35.318Z,15.80
2019-05-20T07:24:01.517Z,15.80
2019-05-20T07:26:27.625Z,15.90
2019-05-20T07:28:53.838Z,16.00
2019-05-20T07:31:20.031Z,16.00
2019-05-20T07:33:46.149Z,16.00
2019-05-20T07:36:12.377Z,16.10
2019-05-20T07:38:38.493Z,16.10
2019-05-20T07:41:04.750Z,16.10
2019-05-20T07:43:30.934Z,16.10
2019-05-20T07:45:57.783Z,16.10
2019-05-20T07:48:24.428Z,16.10
2019-05-20T07:50:51.655Z,16.20
2019-05-20T07:53:18.935Z,16.10
2019-05-20T07:55:51.788Z,16.10
2019-05-20T07:58:20.583Z,16.10
2019-05-20T08:00:46.676Z,16.10
2019-05-20T08:03:12.869Z,16.20
2019-05-20T08:05:39.087Z,16.20
2019-05-20T08:08:05.213Z,16.30
2019-05-20T08:10:31.387Z,16.20
2019-05-20T08:12:57.666Z,16.10
2019-05-20T08:15:23.824Z,16.20
2019-05-20T08:17:50.013Z,16.20
2019-05-20T08:20:17.168Z,16.00
2019-05-20T08:22:43.404Z,16.00
2019-05-20T08:25:09.815Z,16.10
2019-05-20T08:27:36.367Z,16.10
2019-05-20T08:30:07.668Z,16.00
2019-05-20T08:32:34.055Z,15.90
2019-05-20T08:35:00.143Z,15.90
2019-05-20T08:37:26.217Z,15.90
2019-05-20T08:39:52.319Z,16.00
2019-05-20T08:42:18.403Z,15.90
2019-05-20T08:44:44.523Z,15.90
2019-05-20T08:47:10.735Z,15.80
2019-05-20T08:49:36.971Z,15.80
2019-05-20T08:52:03.468Z,15.80
2019-05-20T08:54:29.615Z,15.90
2019-05-20T08:56:55.796Z,15.90
2019-05-20T08:59:21.989Z,15.90
2019-05-20T09:01:48.133Z,15.90
2019-05-20T09:04:14.382Z,15.90
2019-05-20T09:06:40.527Z,15.90
2019-05-20T09:09:06.807Z,16.00
2019-05-20T09:11:32.933Z,16.10
2019-05-20T09:13:59.037Z,16.20
2019-05-20T09:16:25.218Z,16.10
2019-05-20T09:18:51.425Z,16.20
2019-05-20T09:21:17.729Z,16.10
2019-05-20T09:23:43.857Z,16.10
2019-05-20T09:26:10.057Z,16.10
2019-05-20T09:28:36.247Z,16.20
2019-05-20T09:31:02.415Z,16.30
2019-05-20T09:33:29.406Z,16.30
2019-05-20T09:35:55.741Z,16.40
2019-05-20T09:38:21.833Z,16.50
2019-05-20T09:40:48.870Z,16.70
2019-05-20T09:43:15.507Z,16.80
2019-05-20T09:45:42.025Z,16.90
2019-05-20T09:48:09.495Z,17.00
2019-05-20T09:50:35.848Z,17.00
2019-05-20T09:53:06.509Z,16.90
2019-05-20T09:55:30.418Z,16.90
2019-05-20T09:57:56.799Z,16.90
2019-05-20T10:00:23.385Z,17.00
2019-05-20T10:02:49.467Z,17.00
2019-05-20T10:05:15.572Z,17.00
2019-05-20T10:07:41.906Z,17.10
2019-05-20T10:10:08.848Z,17.10
2019-05-20T10:12:46.092Z,17.00
2019-05-20T10:15:06.987Z,16.90
2019-05-20T10:17:33.167Z,16.90
2019-05-20T10:19:59.286Z,16.80
2019-05-20T10:22:25.373Z,16.80
2019-05-20T10:24:51.907Z,16.70
2019-05-20T10:27:18.021Z,16.70
2019-05-20T10:29:44.122Z,16.60
2019-05-20T10:32:10.236Z,16.50
2019-05-20T10:34:37.474Z,16.50
2019-05-20T10:37:04.156Z,16.50
2019-05-20T10:39:30.386Z,16.50
2019-05-20T10:41:56.496Z,16.60
2019-05-20T10:44:22.568Z,16.50
2019-05-20T10:46:48.739Z,16.60
2019-05-20T10:49:14.883Z,16.70
2019-05-20T10:51:41.022Z,16.80
2019-05-20T10:54:07.365Z,16.90
2019-05-20T10:56:33.516Z,16.90
2019-05-20T10:58:59.819Z,16.90
2019-05-20T11:01:25.969Z,16.90
2019-05-20T11:03:53.033Z,17.00
2019-05-20T11:06:19.109Z,17.00
2019-05-20T11:08:45.339Z,17.10
2019-05-20T11:11:14.412Z,17.20
2019-05-20T11:13:39.616Z,17.20
2019-05-20T11:16:05.805Z,17.20
2019-05-20T11:18:31.892Z,17.10
2019-05-20T11:20:58.263Z,17.10
2019-05-20T11:23:24.514Z,17.20
2019-05-20T11:25:50.675Z,17.20
2019-05-20T11:28:16.976Z,17.40
2019-05-20T11:30:43.142Z,17.50
2019-05-20T11:33:09.439Z,17.60
2019-05-20T11:35:35.716Z,17.70
2019-05-20T11:38:01.838Z,17.60
2019-05-20T11:40:28.076Z,17.70
2019-05-20T11:42:54.227Z,17.80
2019-05-20T11:45:20.587Z,17.90
2019-05-20T11:47:46.676Z,17.90
2019-05-20T11:50:13.587Z,17.80
2019-05-20T11:52:39.756Z,17.80
2019-05-20T11:55:07.712Z,17.90
2019-05-20T11:57:33.924Z,17.80
2019-05-20T12:00:00.114Z,17.80
2019-05-20T12:02:26.271Z,17.70
2019-05-20T12:04:52.412Z,17.70
2019-05-20T12:07:18.601Z,17.70
2019-05-20T12:09:49.789Z,17.80
2019-05-20T12:12:12.691Z,17.90
2019-05-20T12:14:38.808Z,18.00
2019-05-20T12:17:05.049Z,17.90
2019-05-20T12:19:31.124Z,17.90
2019-05-20T12:21:57.206Z,17.80
2019-05-20T12:24:23.344Z,17.70
2019-05-20T12:26:49.414Z,17.80
2019-05-20T12:29:15.575Z,17.70
2019-05-20T12:31:41.697Z,17.70
2019-05-20T12:34:07.892Z,17.80
2019-05-20T12:36:34.005Z,17.90
2019-05-20T12:39:00.202Z,17.90
2019-05-20T12:41:26.358Z,18.00
2019-05-20T12:44:10.314Z,18.10
2019-05-20T12:46:20.617Z,18.20
2019-05-20T12:48:46.890Z,18.30
2019-05-20T12:51:14.626Z,18.40
2019-05-20T12:53:41.234Z,18.40
2019-05-20T12:56:07.464Z,18.50
2019-05-20T12:58:33.583Z,18.50
2019-05-20T13:00:59.769Z,18.60
2019-05-20T13:03:25.886Z,18.60
2019-05-20T13:05:52.051Z,18.50
2019-05-20T13:08:18.265Z,18.50
2019-05-20T13:10:44.457Z,18.40
2019-05-20T13:13:10.560Z,18.40
2019-05-20T13:15:36.655Z,18.30
2019-05-20T13:18:02.880Z,18.30
2019-05-20T13:20:29.000Z,18.30
2019-05-20T13:22:55.202Z,18.30
2019-05-20T13:25:21.289Z,18.10
2019-05-20T13:27:47.397Z,18.20
2019-05-20T13:30:14.190Z,18.20
2019-05-20T13:32:40.413Z,18.30
2019-05-20T13:35:07.115Z,18.40
2019-05-20T13:37:33.302Z,18.50
2019-05-20T13:40:02.895Z,18.60
2019-05-20T13:42:27.449Z,18.70
2019-05-20T13:44:53.570Z,18.70
2019-05-20T13:47:19.674Z,18.60
2019-05-20T13:49:45.965Z,18.50
2019-05-20T13:52:12.045Z,18.50
2019-05-20T13:54:38.191Z,18.50
2019-05-20T13:57:04.273Z,18.30
2019-05-20T13:59:30.427Z,18.30
2019-05-20T14:01:56.655Z,18.40
2019-05-20T14:04:22.767Z,18.30
2019-05-20T14:06:54.455Z,18.30
2019-05-20T14:09:20.677Z,18.20
2019-05-20T14:11:46.764Z,18.00
2019-05-20T14:14:14.830Z,18.00
2019-05-20T14:16:44.666Z,17.80
2019-05-20T14:19:11.744Z,17.80
2019-05-20T14:21:38.987Z,17.70
2019-05-20T14:24:06.583Z,17.60
2019-05-20T14:26:34.047Z,17.60
2019-05-20T14:29:01.280Z,17.50
2019-05-20T14:31:28.337Z,17.50
2019-05-20T14:33:54.525Z,17.40
2019-05-20T14:36:38.572Z,17.30
2019-05-20T14:38:49.404Z,17.30
2019-05-20T14:41:21.514Z,17.20
2019-05-20T14:43:45.087Z,17.10
2019-05-20T14:46:11.259Z,17.10
2019-05-20T14:48:38.316Z,17.00
2019-05-20T14:51:06.965Z,17.00
2019-05-20T14:53:33.774Z,16.80
2019-05-20T14:56:00.849Z,16.70
2019-05-20T14:58:27.815Z,16.60
2019-05-20T15:00:54.859Z,16.50
2019-05-20T15:03:21.689Z,16.30
2019-05-20T15:05:48.064Z,16.20
2019-05-20T15:08:15.273Z,16.20
2019-05-20T15:10:41.818Z,16.20
2019-05-20T15:13:08.163Z,16.10
2019-05-20T15:15:35.083Z,16.10
2019-05-20T15:18:01.998Z,16.10
2019-05-20T15:20:28.852Z,16.10
2019-05-20T15:22:56.021Z,16.20
2019-05-20T15:25:22.861Z,16.20
2019-05-20T15:27:52.676Z,16.30
2019-05-20T15:30:21.661Z,16.30
2019-05-20T15:32:48.707Z,16.30
2019-05-20T15:35:15.887Z,16.20
2019-05-20T15:37:42.063Z,16.30
2019-05-20T15:40:12.043Z,16.20
2019-05-20T15:42:39.405Z,16.20
2019-05-20T15:45:07.074Z,16.20
2019-05-20T15:47:33.191Z,16.30
2019-05-20T15:50:03.512Z,16.30
2019-05-20T15:52:30.011Z,16.20
2019-05-20T15:54:58.384Z,16.20
2019-05-20T15:57:24.627Z,16.10
2019-05-20T15:59:53.235Z,15.90
2019-05-20T16:02:20.238Z,15.80
2019-05-20T16:04:46.991Z,15.70
2019-05-20T16:07:14.144Z,15.70
2019-05-20T16:09:40.259Z,15.60
2019-05-20T16:12:06.336Z,15.50
2019-05-20T16:14:33.218Z,15.30
2019-05-20T16:17:00.577Z,15.10
2019-05-20T16:19:26.734Z,15.10
2019-05-20T16:21:53.784Z,15.10
2019-05-20T16:24:21.014Z,15.00
2019-05-20T16:26:47.099Z,14.90
2019-05-20T16:29:13.974Z,14.80
2019-05-20T16:31:40.066Z,14.70
2019-05-20T16:34:06.340Z,14.70
2019-05-20T16:36:32.654Z,14.60
2019-05-20T16:38:58.854Z,14.60
2019-05-20T16:41:26.099Z,14.50
2019-05-20T16:43:54.502Z,14.50
2019-05-20T16:46:20.720Z,14.60
2019-05-20T16:48:46.857Z,14.50
2019-05-20T16:51:13.721Z,14.50
2019-05-20T16:53:40.433Z,14.40
2019-05-20T16:56:07.503Z,14.40
2019-05-20T16:58:34.426Z,14.40
2019-05-20T17:01:00.649Z,14.40
2019-05-20T17:03:26.850Z,14.40
2019-05-20T17:05:53.002Z,14.40
2019-05-20T17:08:19.840Z,14.50
2019-05-20T17:10:46.505Z,14.50
2019-05-20T17:13:18.107Z,14.50
2019-05-20T17:15:44.920Z,14.40
2019-05-20T17:18:11.874Z,14.30
2019-05-20T17:20:38.664Z,14.40
2019-05-20T17:23:05.849Z,14.30
2019-05-20T17:25:35.378Z,14.40
2019-05-20T17:28:02.298Z,14.30
2019-05-20T17:30:28.828Z,14.30
2019-05-20T17:32:55.771Z,14.30
2019-05-20T17:35:22.381Z,14.30
2019-05-20T17:37:49.056Z,14.20
2019-05-20T17:40:17.421Z,14.20
2019-05-20T17:42:44.215Z,14.20
2019-05-20T17:45:11.421Z,14.10
2019-05-20T17:47:37.956Z,14.10
2019-05-20T17:50:06.893Z,14.10
2019-05-20T17:52:33.658Z,14.10
2019-05-20T17:55:00.630Z,14.10
2019-05-20T17:57:27.276Z,14.10
2019-05-20T17:59:53.930Z,14.10
2019-05-20T18:02:20.499Z,14.10
2019-05-20T18:04:47.265Z,14.10
2019-05-20T18:07:13.936Z,14.00
2019-05-20T18:09:42.340Z,14.00
2019-05-20T18:12:09.058Z,14.00
2019-05-20T18:14:35.518Z,13.90
2019-05-20T18:17:02.214Z,13.90
2019-05-20T18:19:28.767Z,14.00
2019-05-20T18:21:55.307Z,14.00
2019-05-20T18:24:21.942Z,14.00
2019-05-20T18:26:48.268Z,14.00
2019-05-20T18:29:14.944Z,13.90
2019-05-20T18:31:41.652Z,13.90
2019-05-20T18:34:10.130Z,13.90
2019-05-20T18:36:36.745Z,13.90
2019-05-20T18:39:05.544Z,13.90
2019-05-20T18:41:31.911Z,13.80
2019-05-20T18:43:58.744Z,13.80
2019-05-20T18:46:25.581Z,13.90
2019-05-20T18:48:52.098Z,13.80
2019-05-20T18:51:18.340Z,13.80
2019-05-20T18:53:45.386Z,13.70
2019-05-20T18:56:12.085Z,13.70
2019-05-20T18:58:38.562Z,13.70
2019-05-20T19:01:05.714Z,13.70
2019-05-20T19:03:32.861Z,13.70
2019-05-20T19:05:59.899Z,13.70
2019-05-20T19:08:26.428Z,13.70
2019-05-20T19:10:53.094Z,13.80
2019-05-20T19:13:19.798Z,13.80
2019-05-20T19:15:46.458Z,13.70
2019-05-20T19:18:13.094Z,13.70
2019-05-20T19:20:39.748Z,13.70
2019-05-20T19:23:06.866Z,13.70
2019-05-20T19:25:37.717Z,13.70
2019-05-20T19:28:02.091Z,13.70
2019-05-20T19:30:28.780Z,13.70
2019-05-20T19:32:55.527Z,13.70
2019-05-20T19:35:22.257Z,13.80
2019-05-20T19:37:49.143Z,13.80
2019-05-20T19:40:16.206Z,13.80
2019-05-20T19:42:43.154Z,13.70
2019-05-20T19:45:11.728Z,13.80
2019-05-20T19:47:38.103Z,13.70
2019-05-20T19:50:05.401Z,13.80
2019-05-20T19:52:31.493Z,13.80
2019-05-20T19:54:57.581Z,13.80
2019-05-20T19:57:23.709Z,13.70
2019-05-20T19:59:49.910Z,13.80
2019-05-20T20:02:17.801Z,13.80
2019-05-20T20:04:44.371Z,13.70
2019-05-20T20:07:14.655Z,13.70
2019-05-20T20:09:41.601Z,13.70
2019-05-20T20:12:07.895Z,13.70
2019-05-20T20:14:34.079Z,13.80
2019-05-20T20:17:00.199Z,13.70
2019-05-20T20:19:26.423Z,13.80
2019-05-20T20:21:52.836Z,13.80
2019-05-20T20:24:19.010Z,13.80
2019-05-20T20:26:45.207Z,13.70
2019-05-20T20:29:12.071Z,13.70
2019-05-20T20:31:38.331Z,13.60
2019-05-20T20:34:05.417Z,13.70
2019-05-20T20:36:32.137Z,13.70
2019-05-20T20:38:58.266Z,13.70
2019-05-20T20:41:24.795Z,13.80
2019-05-20T20:43:51.148Z,13.80
2019-05-20T20:46:17.360Z,13.80
2019-05-20T20:48:43.452Z,13.80
2019-05-20T20:51:09.568Z,13.80
2019-05-20T20:53:35.808Z,13.80
2019-05-20T20:56:02.202Z,13.80
2019-05-20T20:58:28.477Z,13.80
2019-05-20T21:00:54.563Z,13.80
2019-05-20T21:03:20.679Z,13.90
2019-05-20T21:05:46.870Z,13.80
2019-05-20T21:08:12.935Z,13.80
2019-05-20T21:10:39.063Z,13.80
2019-05-20T21:13:05.221Z,13.80
2019-05-20T21:15:31.447Z,13.80
2019-05-20T21:17:57.645Z,13.80
2019-05-20T21:20:23.831Z,13.80
2019-05-20T21:22:49.974Z,13.90
2019-05-20T21:25:16.055Z,13.80
2019-05-20T21:27:42.292Z,13.90
2019-05-20T21:30:09.014Z,13.80
2019-05-20T21:32:35.495Z,13.80
2019-05-20T21:35:01.613Z,13.80
2019-05-20T21:37:27.802Z,13.80
2019-05-20T21:39:53.876Z,13.80
2019-05-20T21:42:20.021Z,13.80
2019-05-20T21:44:46.133Z,13.80
2019-05-20T21:47:12.267Z,13.80
2019-05-20T21:49:38.495Z,13.80
2019-05-20T21:52:04.784Z,13.80
2019-05-20T21:54:30.902Z,13.80
2019-05-20T21:56:57.080Z,13.80
2019-05-20T21:59:23.158Z,13.90
2019-05-20T22:01:49.282Z,13.90
2019-05-20T22:04:15.502Z,14.00
2019-05-20T22:06:41.808Z,13.90
2019-05-20T22:09:08.103Z,13.90
2019-05-20T22:11:34.176Z,13.90
2019-05-20T22:14:00.379Z,13.90
2019-05-20T22:16:29.686Z,13.90
2019-05-20T22:18:55.387Z,13.90
2019-05-20T22:21:23.375Z,13.90
2019-05-20T22:23:51.438Z,13.90
2019-05-20T22:26:17.605Z,13.90
2019-05-20T22:28:43.743Z,13.90
2019-05-20T22:31:09.820Z,13.90
2019-05-20T22:34:06.595Z,13.90
2019-05-20T22:36:32.760Z,13.90
2019-05-20T22:38:58.895Z,13.90
2019-05-20T22:41:25.113Z,14.00
2019-05-20T22:43:51.321Z,14.00
2019-05-20T22:46:17.779Z,14.00
2019-05-20T22:48:43.885Z,14.00
2019-05-20T22:51:09.971Z,13.90
2019-05-20T22:53:36.152Z,13.90
2019-05-20T22:56:02.379Z,13.90
2019-05-20T22:58:28.463Z,13.90
2019-05-20T23:00:54.550Z,13.80
2019-05-20T23:03:20.669Z,13.90
2019-05-20T23:05:46.851Z,13.90
2019-05-20T23:08:12.929Z,13.90
2019-05-20T23:10:39.047Z,13.80
2019-05-20T23:13:05.182Z,13.80
2019-05-20T23:15:31.256Z,13.90
2019-05-20T23:17:57.384Z,13.80
2019-05-20T23:20:23.528Z,13.90
2019-05-20T23:22:49.701Z,13.90
2019-05-20T23:25:15.831Z,13.80
2019-05-20T23:27:41.981Z,13.80
2019-05-20T23:30:08.846Z,13.90
2019-05-20T23:32:34.953Z,13.90
2019-05-20T23:35:01.021Z,13.90
2019-05-20T23:37:27.089Z,13.90
2019-05-20T23:39:53.256Z,13.90
2019-05-20T23:42:19.463Z,13.90
2019-05-20T23:44:45.642Z,13.90
2019-05-20T23:47:11.721Z,13.90
2019-05-20T23:49:37.823Z,13.90
2019-05-20T23:52:03.889Z,13.90
2019-05-20T23:54:29.967Z,13.90
2019-05-20T23:56:56.026Z,13.90
2019-05-20T23:59:22.096Z,13.90
